createdAt,value
2018-07-20T00:01:38.835Z,7.80
2018-07-20T00:04:10.391Z,6.90
2018-07-20T00:06:39.335Z,7.70
2018-07-20T00:09:09.894Z,8.13
2018-07-20T00:11:39.433Z,8.70
2018-07-20T00:14:09.067Z,7.70
2018-07-20T00:16:37.934Z,7.30
2018-07-20T00:19:07.554Z,7.23
2018-07-20T00:21:36.368Z,7.43
2018-07-20T00:24:05.822Z,7.27
2018-07-20T00:26:34.560Z,7.87
2018-07-20T00:29:04.708Z,7.20
2018-07-20T00:31:37.553Z,7.20
2018-07-20T00:34:06.896Z,7.47
2018-07-20T00:36:39.703Z,7.07
2018-07-20T00:39:10.422Z,7.50
2018-07-20T00:41:39.799Z,6.93
2018-07-20T00:44:08.836Z,6.80
2018-07-20T00:46:37.621Z,7.53
2018-07-20T00:49:07.332Z,6.83
2018-07-20T00:51:36.213Z,6.90
2018-07-20T00:54:08.967Z,7.57
2018-07-20T00:56:37.782Z,8.17
2018-07-20T00:59:07.041Z,7.37
2018-07-20T01:01:45.515Z,8.00
2018-07-20T01:04:15.842Z,6.77
2018-07-20T01:06:44.669Z,7.10
2018-07-20T01:09:14.277Z,7.10
2018-07-20T01:11:43.057Z,6.83
2018-07-20T01:14:12.630Z,6.93
2018-07-20T01:16:41.473Z,7.20
2018-07-20T01:19:10.221Z,6.57
2018-07-20T01:21:40.029Z,6.80
2018-07-20T01:24:09.471Z,6.50
2018-07-20T01:26:38.179Z,7.20
2018-07-20T01:29:07.529Z,6.80
2018-07-20T01:31:40.700Z,6.63
2018-07-20T01:34:09.577Z,6.40
2018-07-20T01:36:39.464Z,5.97
2018-07-20T01:39:09.275Z,6.27
2018-07-20T01:41:39.931Z,6.50
2018-07-20T01:44:09.403Z,6.67
2018-07-20T01:46:38.402Z,6.80
2018-07-20T01:49:08.159Z,6.50
2018-07-20T01:51:37.437Z,6.93
2018-07-20T01:54:07.313Z,6.40
2018-07-20T01:56:36.846Z,6.30
2018-07-20T01:59:06.199Z,6.47
2018-07-20T02:01:35.289Z,6.40
2018-07-20T02:04:04.803Z,6.03
2018-07-20T02:06:33.539Z,6.57
2018-07-20T02:09:03.725Z,7.00
2018-07-20T02:11:33.391Z,6.53
2018-07-20T02:14:02.394Z,6.27
2018-07-20T02:16:31.867Z,6.20
2018-07-20T02:19:01.148Z,6.40
2018-07-20T02:21:34.030Z,6.90
2018-07-20T02:24:08.396Z,6.93
2018-07-20T02:26:38.490Z,6.77
2018-07-20T02:29:08.236Z,6.40
2018-07-20T02:31:38.063Z,6.30
2018-07-20T02:34:07.899Z,7.33
2018-07-20T02:36:37.756Z,6.73
2018-07-20T02:39:10.267Z,7.20
2018-07-20T02:41:39.856Z,6.33
2018-07-20T02:44:10.338Z,7.10
2018-07-20T02:46:39.545Z,6.60
2018-07-20T02:49:12.968Z,6.73
2018-07-20T02:51:42.615Z,6.93
2018-07-20T02:54:12.575Z,6.20
2018-07-20T02:56:42.137Z,6.60
2018-07-20T02:59:10.987Z,6.20
2018-07-20T03:01:41.144Z,6.90
2018-07-20T03:04:09.998Z,6.90
2018-07-20T03:06:38.917Z,7.00
2018-07-20T03:09:09.293Z,6.30
2018-07-20T03:11:38.884Z,7.50
2018-07-20T03:14:08.393Z,6.90
2018-07-20T03:16:37.240Z,6.93
2018-07-20T03:19:07.108Z,7.17
2018-07-20T03:21:35.933Z,7.80
2018-07-20T03:24:04.973Z,7.70
2018-07-20T03:26:34.549Z,7.10
2018-07-20T03:29:03.413Z,7.83
2018-07-20T03:31:36.789Z,7.50
2018-07-20T03:34:05.625Z,7.60
2018-07-20T03:36:35.089Z,7.00
2018-07-20T03:39:04.126Z,7.97
2018-07-20T03:41:34.140Z,7.97
2018-07-20T03:44:07.555Z,7.40
2018-07-20T03:46:37.063Z,7.27
2018-07-20T03:49:06.836Z,7.43
2018-07-20T03:51:36.241Z,7.73
2018-07-20T03:54:05.193Z,6.23
2018-07-20T03:56:34.533Z,7.37
2018-07-20T03:59:03.853Z,7.50
2018-07-20T04:01:33.844Z,7.23
2018-07-20T04:04:03.510Z,6.57
2018-07-20T04:06:34.093Z,6.73
2018-07-20T04:09:04.017Z,6.97
2018-07-20T04:11:33.225Z,7.20
2018-07-20T04:14:02.176Z,7.53
2018-07-20T04:16:31.336Z,7.43
2018-07-20T04:19:00.413Z,7.13
2018-07-20T04:21:30.216Z,7.13
2018-07-20T04:23:59.016Z,7.50
2018-07-20T04:26:28.315Z,7.47
2018-07-20T04:28:57.114Z,7.50
2018-07-20T04:31:26.757Z,7.37
2018-07-20T04:33:55.584Z,7.03
2018-07-20T04:36:29.343Z,7.50
2018-07-20T04:38:58.059Z,6.73
2018-07-20T04:41:27.304Z,7.30
2018-07-20T04:43:57.129Z,8.07
2018-07-20T04:46:26.118Z,7.20
2018-07-20T04:48:55.479Z,6.50
2018-07-20T04:51:24.308Z,7.97
2018-07-20T04:53:53.794Z,8.97
2018-07-20T04:56:22.693Z,7.67
2018-07-20T04:58:52.054Z,9.27
2018-07-20T05:01:20.842Z,8.03
2018-07-20T05:03:50.730Z,10.20
2018-07-20T05:06:19.718Z,7.67
2018-07-20T05:08:48.449Z,8.00
2018-07-20T05:11:17.816Z,8.63
2018-07-20T05:13:46.532Z,7.47
2018-07-20T05:16:16.616Z,7.77
2018-07-20T05:18:46.024Z,8.00
2018-07-20T05:21:14.913Z,8.00
2018-07-20T05:23:44.441Z,7.63
2018-07-20T05:26:13.496Z,7.43
2018-07-20T05:28:43.283Z,7.97
2018-07-20T05:31:12.053Z,7.70
2018-07-20T05:33:41.964Z,8.37
2018-07-20T05:36:11.333Z,8.37
2018-07-20T05:38:39.926Z,8.50
2018-07-20T05:41:09.517Z,8.40
2018-07-20T05:43:39.626Z,13.40
2018-07-20T05:46:09.564Z,11.40
2018-07-20T05:48:39.067Z,8.93
2018-07-20T05:51:07.856Z,9.10
2018-07-20T05:53:37.589Z,9.10
2018-07-20T05:56:07.914Z,7.90
2018-07-20T05:58:37.192Z,8.97
2018-07-20T06:01:06.119Z,8.93
2018-07-20T06:03:39.436Z,8.77
2018-07-20T06:06:08.927Z,9.73
2018-07-20T06:08:37.924Z,11.23
2018-07-20T06:11:07.053Z,9.93
2018-07-20T06:13:35.908Z,8.53
2018-07-20T06:16:04.829Z,8.17
2018-07-20T06:18:34.874Z,8.83
2018-07-20T06:21:03.800Z,9.20
2018-07-20T06:23:33.643Z,10.20
2018-07-20T06:26:03.181Z,11.53
2018-07-20T06:28:35.524Z,10.30
2018-07-20T06:31:04.389Z,8.50
2018-07-20T06:33:33.250Z,8.50
2018-07-20T06:36:02.682Z,9.50
2018-07-20T06:38:31.525Z,9.47
2018-07-20T06:41:01.913Z,8.80
2018-07-20T06:43:30.768Z,8.93
2018-07-20T06:45:59.574Z,9.20
2018-07-20T06:48:29.109Z,9.17
2018-07-20T06:50:59.099Z,9.73
2018-07-20T06:53:28.855Z,9.43
2018-07-20T06:55:57.794Z,10.07
2018-07-20T06:58:27.335Z,8.43
2018-07-20T07:00:56.612Z,9.47
2018-07-20T07:03:27.457Z,9.40
2018-07-20T07:05:56.286Z,8.93
2018-07-20T07:08:25.769Z,9.80
2018-07-20T07:10:54.773Z,8.97
2018-07-20T07:13:23.689Z,9.90
2018-07-20T07:15:52.584Z,10.20
2018-07-20T07:18:22.289Z,10.00
2018-07-20T07:20:56.674Z,9.90
2018-07-20T07:23:25.962Z,9.43
2018-07-20T07:25:54.860Z,9.30
2018-07-20T07:28:25.264Z,9.40
2018-07-20T07:30:54.360Z,8.97
2018-07-20T07:33:23.801Z,9.50
2018-07-20T07:35:53.339Z,8.97
2018-07-20T07:38:22.925Z,8.93
2018-07-20T07:40:52.430Z,9.90
2018-07-20T07:43:21.342Z,9.97
2018-07-20T07:45:50.888Z,9.13
2018-07-20T07:48:19.756Z,9.57
2018-07-20T07:50:49.095Z,8.70
2018-07-20T07:53:17.885Z,8.90
2018-07-20T07:55:48.785Z,9.00
2018-07-20T07:58:18.722Z,10.13
2018-07-20T08:00:48.267Z,10.20
2018-07-20T08:03:21.654Z,9.13
2018-07-20T08:05:50.497Z,11.60
2018-07-20T08:08:19.266Z,10.30
2018-07-20T08:10:48.306Z,10.90
2018-07-20T08:13:17.068Z,10.97
2018-07-20T08:15:45.885Z,10.93
2018-07-20T08:18:15.161Z,9.97
2018-07-20T08:20:44.862Z,11.43
2018-07-20T08:23:14.261Z,10.63
2018-07-20T08:25:43.298Z,11.43
2018-07-20T08:28:13.060Z,11.17
2018-07-20T08:30:41.981Z,10.90
2018-07-20T08:33:11.609Z,11.60
2018-07-20T08:35:41.188Z,10.80
2018-07-20T08:38:10.077Z,11.20
2018-07-20T08:40:39.476Z,11.40
2018-07-20T08:43:08.848Z,11.03
2018-07-20T08:45:38.209Z,11.47
2018-07-20T08:48:07.862Z,11.00
2018-07-20T08:50:37.492Z,10.03
2018-07-20T08:53:07.551Z,10.50
2018-07-20T08:55:36.512Z,11.17
2018-07-20T08:58:05.926Z,10.67
2018-07-20T09:00:37.472Z,11.00
2018-07-20T09:03:07.616Z,11.37
2018-07-20T09:05:36.823Z,10.30
2018-07-20T09:08:05.945Z,13.00
2018-07-20T09:10:35.210Z,10.97
2018-07-20T09:13:04.133Z,10.20
2018-07-20T09:15:33.375Z,10.60
2018-07-20T09:18:02.300Z,10.93
2018-07-20T09:20:32.239Z,10.00
2018-07-20T09:23:02.236Z,10.00
2018-07-20T09:25:31.608Z,10.07
2018-07-20T09:28:01.342Z,10.43
2018-07-20T09:30:35.276Z,10.57
2018-07-20T09:33:05.186Z,11.20
2018-07-20T09:35:35.019Z,16.50
2018-07-20T09:38:11.602Z,12.30
2018-07-20T09:40:41.255Z,10.13
2018-07-20T09:43:10.843Z,10.90
2018-07-20T09:45:39.905Z,10.23
2018-07-20T09:48:14.360Z,10.40
2018-07-20T09:50:43.396Z,10.73
2018-07-20T09:53:12.981Z,10.97
2018-07-20T09:55:44.152Z,9.67
2018-07-20T09:58:13.652Z,10.30
2018-07-20T10:00:50.250Z,9.70
2018-07-20T10:03:20.904Z,9.03
2018-07-20T10:05:51.206Z,10.37
2018-07-20T10:08:20.697Z,10.77
2018-07-20T10:10:49.590Z,11.10
2018-07-20T10:13:18.715Z,11.00
2018-07-20T10:15:48.428Z,11.13
2018-07-20T10:18:18.115Z,10.53
2018-07-20T10:20:46.967Z,10.83
2018-07-20T10:23:18.730Z,10.37
2018-07-20T10:25:47.664Z,11.80
2018-07-20T10:28:16.481Z,10.63
2018-07-20T10:30:45.971Z,10.60
2018-07-20T10:33:14.915Z,11.20
2018-07-20T10:35:44.278Z,11.57
2018-07-20T10:38:14.127Z,11.43
2018-07-20T10:40:43.022Z,10.70
2018-07-20T10:43:11.859Z,11.30
2018-07-20T10:45:42.409Z,11.23
2018-07-20T10:48:12.197Z,11.70
2018-07-20T10:50:41.472Z,12.23
2018-07-20T10:53:11.336Z,11.07
2018-07-20T10:55:42.627Z,11.33
2018-07-20T10:58:11.931Z,11.83
2018-07-20T11:00:40.820Z,10.80
2018-07-20T11:03:09.599Z,10.53
2018-07-20T11:05:38.818Z,10.27
2018-07-20T11:08:07.621Z,11.53
2018-07-20T11:10:36.435Z,13.57
2018-07-20T11:13:05.278Z,11.00
2018-07-20T11:15:34.018Z,10.73
2018-07-20T11:18:02.866Z,10.80
2018-07-20T11:20:31.955Z,10.90
2018-07-20T11:23:01.456Z,9.93
2018-07-20T11:25:30.602Z,10.77
2018-07-20T11:27:59.729Z,9.70
2018-07-20T11:30:33.664Z,9.10
2018-07-20T11:33:02.510Z,9.77
2018-07-20T11:35:32.929Z,10.57
2018-07-20T11:38:03.559Z,10.67
2018-07-20T11:40:33.131Z,9.80
2018-07-20T11:43:03.291Z,9.70
2018-07-20T11:45:33.904Z,9.70
2018-07-20T11:48:04.726Z,9.50
2018-07-20T11:50:38.611Z,10.20
2018-07-20T11:53:07.689Z,11.40
2018-07-20T11:55:36.549Z,10.60
2018-07-20T11:58:11.122Z,10.40
2018-07-20T12:00:41.122Z,9.33
2018-07-20T12:03:14.332Z,9.60
2018-07-20T12:05:43.205Z,10.03
2018-07-20T12:08:12.037Z,9.27
2018-07-20T12:10:41.471Z,8.37
2018-07-20T12:13:10.836Z,9.90
2018-07-20T12:15:40.135Z,9.83
2018-07-20T12:18:10.536Z,9.83
2018-07-20T12:20:39.476Z,10.80
2018-07-20T12:23:11.423Z,9.73
2018-07-20T12:25:40.357Z,10.07
2018-07-20T12:28:09.431Z,9.93
2018-07-20T12:30:40.134Z,9.90
2018-07-20T12:33:11.130Z,11.13
2018-07-20T12:35:40.222Z,9.53
2018-07-20T12:38:09.731Z,9.80
2018-07-20T12:40:39.557Z,9.97
2018-07-20T12:43:08.425Z,9.47
2018-07-20T12:45:37.265Z,9.40
2018-07-20T12:48:06.910Z,9.57
2018-07-20T12:50:35.913Z,11.10
2018-07-20T12:53:04.998Z,9.37
2018-07-20T12:55:34.501Z,9.70
2018-07-20T12:58:07.675Z,11.07
2018-07-20T13:00:36.558Z,11.63
2018-07-20T13:03:05.747Z,9.37
2018-07-20T13:05:34.577Z,9.60
2018-07-20T13:08:04.105Z,8.90
2018-07-20T13:10:33.388Z,9.83
2018-07-20T13:13:02.924Z,9.20
2018-07-20T13:15:32.450Z,9.90
2018-07-20T13:18:02.208Z,9.13
2018-07-20T13:20:31.675Z,9.77
2018-07-20T13:23:01.110Z,9.63
2018-07-20T13:25:35.612Z,11.00
2018-07-20T13:28:06.524Z,9.73
2018-07-20T13:30:40.823Z,9.20
2018-07-20T13:33:10.027Z,8.77
2018-07-20T13:35:40.657Z,9.30
2018-07-20T13:38:10.977Z,9.87
2018-07-20T13:40:41.995Z,10.00
2018-07-20T13:43:11.593Z,10.00
2018-07-20T13:45:41.086Z,10.07
2018-07-20T13:48:11.555Z,10.60
2018-07-20T13:50:42.429Z,9.93
2018-07-20T13:53:12.279Z,9.80
2018-07-20T13:55:41.848Z,10.37
2018-07-20T13:58:11.444Z,12.50
2018-07-20T14:01:22.347Z,11.40
2018-07-20T14:04:25.658Z,11.07
2018-07-20T14:06:54.886Z,10.17
2018-07-20T14:09:33.662Z,9.10
2018-07-20T14:12:03.253Z,10.80
2018-07-20T14:14:32.053Z,10.13
2018-07-20T14:17:00.918Z,10.37
2018-07-20T14:19:30.217Z,10.20
2018-07-20T14:21:59.522Z,10.10
2018-07-20T14:24:28.328Z,10.93
2018-07-20T14:26:56.735Z,9.50
2018-07-20T14:29:26.050Z,10.50
2018-07-20T14:31:55.987Z,9.77
2018-07-20T14:34:24.628Z,10.23
2018-07-20T14:36:54.244Z,9.87
2018-07-20T14:39:23.030Z,10.80
2018-07-20T14:41:52.031Z,10.57
2018-07-20T14:44:21.376Z,10.43
2018-07-20T14:46:50.433Z,9.80
2018-07-20T14:49:20.811Z,10.60
2018-07-20T14:51:49.652Z,9.87
2018-07-20T14:54:18.858Z,10.43
2018-07-20T14:56:49.458Z,11.57
2018-07-20T14:59:19.562Z,11.27
2018-07-20T15:01:49.183Z,10.50
2018-07-20T15:04:18.154Z,10.67
2018-07-20T15:06:47.820Z,10.30
2018-07-20T15:09:25.442Z,9.40
2018-07-20T15:11:56.303Z,9.30
2018-07-20T15:14:25.041Z,11.37
2018-07-20T15:16:53.844Z,10.10
2018-07-20T15:19:23.216Z,14.70
2018-07-20T15:21:52.082Z,13.30
2018-07-20T15:24:22.106Z,11.27
2018-07-20T15:26:50.937Z,10.10
2018-07-20T15:29:20.259Z,9.20
2018-07-20T15:31:49.589Z,10.23
2018-07-20T15:34:20.410Z,10.50
2018-07-20T15:36:49.342Z,10.00
2018-07-20T15:39:18.101Z,10.40
2018-07-20T15:41:46.837Z,10.13
2018-07-20T15:44:15.976Z,10.80
2018-07-20T15:46:44.917Z,12.70
2018-07-20T15:49:13.518Z,10.70
2018-07-20T15:54:12.296Z,9.47
2018-07-20T15:56:41.050Z,9.70
2018-07-20T15:59:09.833Z,10.10
2018-07-20T16:01:39.500Z,10.00
2018-07-20T16:04:08.999Z,9.60
2018-07-20T16:06:38.313Z,10.87
2018-07-20T16:09:12.624Z,10.00
2018-07-20T16:11:42.077Z,9.97
2018-07-20T16:14:10.889Z,9.10
2018-07-20T16:16:41.616Z,9.53
2018-07-20T16:19:13.159Z,9.80
2018-07-20T16:21:42.228Z,8.87
2018-07-20T16:24:16.426Z,9.33
2018-07-20T16:26:46.384Z,10.00
2018-07-20T16:29:19.768Z,10.13
2018-07-20T16:31:48.551Z,9.53
2018-07-20T16:34:18.318Z,9.70
2018-07-20T16:36:47.329Z,9.20
2018-07-20T16:39:16.770Z,9.80
2018-07-20T16:41:45.745Z,9.10
2018-07-20T16:44:19.065Z,9.07
2018-07-20T16:46:47.945Z,9.00
2018-07-20T16:49:17.137Z,9.20
2018-07-20T16:51:46.568Z,9.23
2018-07-20T16:54:16.064Z,9.20
2018-07-20T16:56:44.832Z,8.33
2018-07-20T16:59:13.678Z,9.10
2018-07-20T17:01:43.008Z,9.50
2018-07-20T17:04:12.445Z,9.90
2018-07-20T17:06:42.711Z,9.57
2018-07-20T17:09:13.387Z,9.77
2018-07-20T17:11:43.298Z,9.27
2018-07-20T17:14:16.630Z,9.90
2018-07-20T17:16:46.777Z,9.17
2018-07-20T17:19:16.002Z,9.30
2018-07-20T17:21:45.279Z,9.57
2018-07-20T17:24:14.036Z,10.10
2018-07-20T17:26:44.041Z,10.23
2018-07-20T17:29:13.106Z,8.97
2018-07-20T17:31:41.873Z,9.80
2018-07-20T17:34:11.323Z,9.60
2018-07-20T17:36:41.167Z,9.70
2018-07-20T17:39:12.268Z,9.47
2018-07-20T17:41:41.222Z,13.23
2018-07-20T17:44:10.680Z,22.60
2018-07-20T17:46:40.112Z,10.83
2018-07-20T17:49:09.511Z,9.73
2018-07-20T17:51:38.698Z,9.57
2018-07-20T17:54:07.935Z,10.20
2018-07-20T17:56:41.498Z,9.57
2018-07-20T17:59:11.233Z,10.50
2018-07-20T18:01:40.363Z,10.30
2018-07-20T18:04:13.661Z,10.20
2018-07-20T18:06:44.010Z,10.20
2018-07-20T18:09:13.745Z,10.07
2018-07-20T18:11:43.685Z,10.77
2018-07-20T18:14:12.911Z,10.40
2018-07-20T18:16:43.439Z,9.53
2018-07-20T18:19:12.486Z,10.43
2018-07-20T18:21:41.668Z,10.20
2018-07-20T18:24:11.482Z,9.60
2018-07-20T18:26:41.185Z,10.07
2018-07-20T18:29:11.714Z,10.10
2018-07-20T18:31:41.661Z,10.37
2018-07-20T18:34:10.384Z,13.87
2018-07-20T18:36:40.734Z,14.70
2018-07-20T18:39:11.678Z,12.13
2018-07-20T18:41:41.725Z,11.40
2018-07-20T18:44:11.858Z,10.63
2018-07-20T18:46:45.481Z,10.07
2018-07-20T18:49:15.626Z,10.67
2018-07-20T18:51:45.098Z,10.20
2018-07-20T18:54:16.440Z,10.10
2018-07-20T18:56:45.426Z,10.50
2018-07-20T18:59:15.398Z,10.17
2018-07-20T19:01:45.859Z,10.43
2018-07-20T19:04:15.285Z,11.57
2018-07-20T19:06:44.572Z,10.77
2018-07-20T19:09:13.055Z,10.90
2018-07-20T19:11:44.274Z,10.87
2018-07-20T19:14:14.172Z,9.70
2018-07-20T19:16:44.414Z,10.53
2018-07-20T19:19:13.805Z,11.00
2018-07-20T19:21:44.816Z,11.73
2018-07-20T19:24:15.050Z,11.63
2018-07-20T19:26:45.303Z,10.97
2018-07-20T19:29:14.204Z,11.10
2018-07-20T19:31:44.764Z,11.87
2018-07-20T19:34:17.476Z,11.50
2018-07-20T19:36:48.248Z,17.50
2018-07-20T19:39:18.295Z,19.87
2018-07-20T19:41:47.162Z,17.73
2018-07-20T19:44:17.750Z,12.10
2018-07-20T19:46:49.192Z,12.73
2018-07-20T19:49:19.575Z,11.50
2018-07-20T19:51:50.611Z,11.83
2018-07-20T19:54:28.597Z,11.80
2018-07-20T19:56:57.529Z,10.73
2018-07-20T19:59:27.273Z,10.67
2018-07-20T20:01:56.749Z,11.50
2018-07-20T20:04:26.539Z,10.93
2018-07-20T20:06:55.691Z,12.20
2018-07-20T20:09:25.538Z,11.17
2018-07-20T20:11:55.324Z,11.73
2018-07-20T20:14:25.700Z,12.80
2018-07-20T20:16:56.104Z,16.67
2018-07-20T20:19:25.677Z,16.87
2018-07-20T20:22:00.770Z,15.50
2018-07-20T20:24:30.293Z,12.67
2018-07-20T20:27:00.633Z,15.10
2018-07-20T20:29:29.409Z,15.53
2018-07-20T20:31:58.424Z,15.40
2018-07-20T20:34:32.435Z,14.90
2018-07-20T20:37:01.393Z,13.70
2018-07-20T20:39:30.743Z,13.00
2018-07-20T20:42:00.063Z,15.53
2018-07-20T20:44:30.059Z,17.27
2018-07-20T20:47:01.235Z,16.40
2018-07-20T20:49:30.200Z,14.60
2018-07-20T20:52:04.242Z,17.10
2018-07-20T20:54:34.206Z,14.63
2018-07-20T20:57:03.350Z,15.20
2018-07-20T20:59:32.111Z,14.67
2018-07-20T21:02:01.106Z,19.77
2018-07-20T21:04:29.858Z,19.63
2018-07-20T21:06:59.405Z,14.57
2018-07-20T21:09:28.877Z,15.13
2018-07-20T21:11:59.017Z,18.97
2018-07-20T21:14:28.733Z,18.70
2018-07-20T21:16:57.593Z,16.90
2018-07-20T21:19:27.422Z,15.10
2018-07-20T21:21:57.007Z,13.53
2018-07-20T21:24:27.120Z,15.00
2018-07-20T21:26:58.540Z,18.23
2018-07-20T21:29:27.470Z,18.03
2018-07-20T21:31:58.230Z,19.47
2018-07-20T21:34:27.430Z,16.73
2018-07-20T21:36:56.214Z,19.50
2018-07-20T21:39:25.026Z,20.57
2018-07-20T21:41:57.428Z,19.30
2018-07-20T21:44:26.862Z,23.60
2018-07-20T21:46:58.477Z,16.80
2018-07-20T21:49:27.681Z,17.60
2018-07-20T21:51:58.644Z,23.60
2018-07-20T21:54:28.886Z,23.20
2018-07-20T21:56:58.280Z,25.03
2018-07-20T21:59:27.670Z,14.93
2018-07-20T22:01:57.377Z,13.73
2018-07-20T22:04:26.733Z,12.90
2018-07-20T22:06:56.178Z,15.83
2018-07-20T22:09:25.547Z,14.83
2018-07-20T22:11:59.368Z,11.17
2018-07-20T22:14:29.557Z,12.00
2018-07-20T22:16:58.409Z,11.60
2018-07-20T22:19:27.131Z,12.70
2018-07-20T22:21:56.986Z,14.90
2018-07-20T22:24:25.727Z,13.60
2018-07-20T22:27:00.188Z,15.97
2018-07-20T22:29:28.929Z,14.37
2018-07-20T22:31:57.851Z,15.27
2018-07-20T22:34:27.539Z,14.47
2018-07-20T22:36:57.777Z,13.70
2018-07-20T22:39:26.546Z,14.47
2018-07-20T22:42:00.784Z,13.60
2018-07-20T22:44:29.936Z,12.20
2018-07-20T22:46:58.975Z,15.63
2018-07-20T22:49:27.874Z,13.40
2018-07-20T22:52:01.427Z,12.50
2018-07-20T22:54:30.785Z,14.23
2018-07-20T22:56:59.512Z,14.20
2018-07-20T22:59:30.396Z,13.40
2018-07-20T23:01:59.823Z,11.97
2018-07-20T23:04:28.655Z,12.60
2018-07-20T23:06:58.539Z,15.07
2018-07-20T23:09:29.325Z,15.50
2018-07-20T23:11:59.511Z,14.40
2018-07-20T23:14:28.329Z,15.30
2018-07-20T23:16:57.082Z,14.40
2018-07-20T23:19:26.658Z,12.10
2018-07-20T23:21:56.409Z,12.00
2018-07-20T23:24:26.746Z,12.80
2018-07-20T23:26:55.790Z,11.00
2018-07-20T23:29:24.535Z,12.10
2018-07-20T23:31:59.723Z,12.07
2018-07-20T23:34:29.584Z,11.70
2018-07-20T23:36:58.561Z,11.10
2018-07-20T23:39:27.342Z,11.33
2018-07-20T23:41:56.814Z,11.20
2018-07-20T23:44:25.711Z,11.53
2018-07-20T23:46:58.641Z,11.40
2018-07-20T23:49:28.045Z,12.17
2018-07-20T23:52:00.778Z,12.50
2018-07-20T23:54:30.874Z,12.77
2018-07-20T23:57:01.776Z,12.57
2018-07-20T23:59:34.997Z,12.27
